createdAt,value
2023-07-29T00:02:41.124Z,18.10
2023-07-29T00:06:44.052Z,18.10
2023-07-29T00:10:44.364Z,18.10
2023-07-29T00:14:44.609Z,18.10
2023-07-29T00:18:44.794Z,18.00
2023-07-29T00:22:47.641Z,18.10
2023-07-29T00:26:47.832Z,18.10
2023-07-29T00:30:48.137Z,18.10
2023-07-29T00:34:48.476Z,18.10
2023-07-29T00:38:52.027Z,18.10
2023-07-29T00:42:53.233Z,18.10
2023-07-29T00:46:56.585Z,18.10
2023-07-29T00:50:58.249Z,18.10
2023-07-29T00:55:01.167Z,18.10
2023-07-29T00:59:03.279Z,18.10
2023-07-29T01:03:03.921Z,18.00
2023-07-29T01:07:15.091Z,18.00
2023-07-29T01:11:37.539Z,18.00
2023-07-29T01:15:47.593Z,17.90
2023-07-29T01:20:06.825Z,17.90
2023-07-29T01:24:10.194Z,17.90
2023-07-29T01:28:10.726Z,17.80
2023-07-29T01:32:19.186Z,17.70
2023-07-29T01:36:26.931Z,17.70
2023-07-29T01:40:32.070Z,17.70
2023-07-29T01:44:32.824Z,17.60
2023-07-29T01:48:34.097Z,17.60
2023-07-29T01:52:34.338Z,17.50
2023-07-29T01:56:38.623Z,17.50
2023-07-29T02:00:39.063Z,17.50
2023-07-29T02:04:39.344Z,17.50
2023-07-29T02:08:42.135Z,17.60
2023-07-29T02:12:44.912Z,17.60
2023-07-29T02:16:45.148Z,17.50
2023-07-29T02:20:50.583Z,17.60
2023-07-29T02:24:51.209Z,17.50
2023-07-29T02:28:54.047Z,17.50
2023-07-29T02:32:54.315Z,17.60
2023-07-29T02:36:54.591Z,17.50
2023-07-29T02:40:54.908Z,17.50
2023-07-29T02:44:57.763Z,17.50
2023-07-29T02:48:58.084Z,17.50
2023-07-29T02:52:58.440Z,17.60
2023-07-29T02:56:58.650Z,17.50
2023-07-29T03:01:05.877Z,17.50
2023-07-29T03:05:06.554Z,17.50
2023-07-29T03:09:06.901Z,17.50
2023-07-29T03:13:07.234Z,17.40
2023-07-29T03:17:10.756Z,17.40
2023-07-29T03:21:11.767Z,17.50
2023-07-29T03:25:12.718Z,17.50
2023-07-29T03:29:13.305Z,17.50
2023-07-29T03:33:16.333Z,17.30
2023-07-29T03:37:16.622Z,17.20
2023-07-29T03:41:16.901Z,17.00
2023-07-29T03:45:17.362Z,16.80
2023-07-29T03:49:20.327Z,16.70
2023-07-29T03:53:20.605Z,16.60
2023-07-29T03:57:20.904Z,16.50
2023-07-29T04:01:21.252Z,16.40
2023-07-29T04:05:24.272Z,16.30
2023-07-29T04:09:24.618Z,16.30
2023-07-29T04:13:25.047Z,16.30
2023-07-29T04:17:26.210Z,16.30
2023-07-29T04:21:29.010Z,16.20
2023-07-29T04:25:29.542Z,16.30
2023-07-29T04:29:30.135Z,16.30
2023-07-29T04:33:30.549Z,16.30
2023-07-29T04:37:33.513Z,16.30
2023-07-29T04:41:33.821Z,16.30
2023-07-29T04:45:34.854Z,16.30
2023-07-29T04:49:35.179Z,16.50
2023-07-29T04:53:39.568Z,16.50
2023-07-29T04:57:39.801Z,16.50
2023-07-29T05:01:40.041Z,16.60
2023-07-29T05:05:40.334Z,16.70
2023-07-29T05:09:43.595Z,16.90
2023-07-29T05:13:45.253Z,17.10
2023-07-29T05:17:46.420Z,17.30
2023-07-29T05:21:46.681Z,17.60
2023-07-29T05:25:49.581Z,18.00
2023-07-29T05:29:49.796Z,18.40
2023-07-29T05:33:50.170Z,18.60
2023-07-29T05:37:50.485Z,18.90
2023-07-29T05:41:53.366Z,19.10
2023-07-29T05:45:53.762Z,19.10
2023-07-29T05:49:54.658Z,19.30
2023-07-29T05:53:54.964Z,19.50
2023-07-29T05:57:58.971Z,19.60
2023-07-29T06:02:00.674Z,19.60
2023-07-29T06:06:00.890Z,19.70
2023-07-29T06:10:01.182Z,19.70
2023-07-29T06:14:03.983Z,19.70
2023-07-29T06:18:04.286Z,19.60
2023-07-29T06:22:05.639Z,19.50
2023-07-29T06:26:07.065Z,19.60
2023-07-29T06:30:11.804Z,19.70
2023-07-29T06:34:12.055Z,19.90
2023-07-29T06:38:12.370Z,19.80
2023-07-29T06:42:12.611Z,19.80
2023-07-29T06:46:15.580Z,20.00
2023-07-29T06:50:15.796Z,20.00
2023-07-29T06:54:16.056Z,20.00
2023-07-29T06:58:16.697Z,20.00
2023-07-29T07:02:20.004Z,20.40
2023-07-29T07:06:20.287Z,20.70
2023-07-29T07:10:20.718Z,20.30
2023-07-29T07:14:21.035Z,19.90
2023-07-29T07:18:24.371Z,19.50
2023-07-29T07:22:25.188Z,19.00
2023-07-29T07:26:25.433Z,18.50
2023-07-29T07:30:25.692Z,18.50
2023-07-29T07:34:28.570Z,18.50
2023-07-29T07:38:28.924Z,18.40
2023-07-29T07:42:29.208Z,18.40
2023-07-29T07:46:29.478Z,18.40
2023-07-29T07:50:33.917Z,18.40
2023-07-29T07:54:34.245Z,18.20
2023-07-29T07:58:34.513Z,18.30
2023-07-29T08:02:34.843Z,18.30
2023-07-29T08:06:38.007Z,18.40
2023-07-29T08:10:38.458Z,18.50
2023-07-29T08:14:38.695Z,18.70
2023-07-29T08:18:40.330Z,18.90
2023-07-29T08:22:43.261Z,19.10
2023-07-29T08:26:43.486Z,19.10
2023-07-29T08:30:43.718Z,19.30
2023-07-29T08:34:43.979Z,19.40
2023-07-29T08:38:47.041Z,19.60
2023-07-29T08:42:52.620Z,19.50
2023-07-29T08:46:52.946Z,19.50
2023-07-29T08:50:56.341Z,19.40
2023-07-29T08:55:00.313Z,19.20
2023-07-29T08:59:03.445Z,19.20
2023-07-29T09:03:07.793Z,19.00
2023-07-29T09:07:11.385Z,18.90
2023-07-29T09:11:18.314Z,18.80
2023-07-29T09:15:32.052Z,18.60
2023-07-29T09:19:32.385Z,18.50
2023-07-29T09:23:32.734Z,18.40
2023-07-29T09:27:40.032Z,17.90
2023-07-29T09:31:40.432Z,17.70
2023-07-29T09:35:42.175Z,17.50
2023-07-29T09:39:42.609Z,17.30
2023-07-29T09:43:48.364Z,17.10
2023-07-29T09:47:51.564Z,17.00
2023-07-29T09:51:51.989Z,17.00
2023-07-29T09:55:53.366Z,17.00
2023-07-29T10:00:06.059Z,17.00
2023-07-29T10:04:10.108Z,17.00
2023-07-29T10:08:14.923Z,17.10
2023-07-29T10:12:17.626Z,17.20
2023-07-29T10:16:25.885Z,17.20
2023-07-29T10:20:26.686Z,17.20
2023-07-29T10:24:34.096Z,17.30
2023-07-29T10:28:36.732Z,17.30
2023-07-29T10:32:41.003Z,17.30
2023-07-29T10:36:42.183Z,17.50
2023-07-29T10:40:54.357Z,17.60
2023-07-29T10:44:56.884Z,17.80
2023-07-29T10:49:01.227Z,18.10
2023-07-29T10:53:01.692Z,18.60
2023-07-29T10:57:02.875Z,19.30
2023-07-29T11:01:03.229Z,19.80
2023-07-29T11:05:11.547Z,20.40
2023-07-29T11:09:43.754Z,20.60
2023-07-29T11:13:45.093Z,20.50
2023-07-29T11:17:48.149Z,20.30
2023-07-29T11:21:52.509Z,20.70
2023-07-29T11:25:54.166Z,21.90
2023-07-29T11:29:54.568Z,22.80
2023-07-29T11:33:55.397Z,23.10
2023-07-29T11:38:00.470Z,23.00
2023-07-29T11:42:00.683Z,22.70
2023-07-29T11:46:04.955Z,22.00
2023-07-29T11:50:08.047Z,21.60
2023-07-29T11:54:12.420Z,21.90
2023-07-29T11:58:13.703Z,22.00
2023-07-29T12:02:18.938Z,22.10
2023-07-29T12:06:20.056Z,22.80
2023-07-29T12:10:23.406Z,23.30
2023-07-29T12:14:23.979Z,23.70
2023-07-29T12:18:34.959Z,24.30
2023-07-29T12:22:35.312Z,23.70
2023-07-29T12:26:40.116Z,23.20
2023-07-29T12:30:46.284Z,22.90
2023-07-29T12:34:46.573Z,22.60
2023-07-29T12:38:47.749Z,22.10
2023-07-29T12:42:51.027Z,21.90
2023-07-29T12:46:51.480Z,22.40
2023-07-29T12:50:52.953Z,23.20
2023-07-29T12:54:53.148Z,23.80
2023-07-29T12:58:55.927Z,24.20
2023-07-29T13:02:56.260Z,24.90
2023-07-29T13:06:57.760Z,25.40
2023-07-29T13:10:58.106Z,25.90
2023-07-29T13:15:01.184Z,26.70
2023-07-29T13:19:01.695Z,26.90
2023-07-29T13:23:01.949Z,27.00
2023-07-29T13:27:02.244Z,27.50
2023-07-29T13:31:05.451Z,27.70
2023-07-29T13:35:05.818Z,27.80
2023-07-29T13:39:06.914Z,28.80
2023-07-29T13:43:07.640Z,28.50
2023-07-29T13:47:10.685Z,27.60
2023-07-29T13:51:10.972Z,27.10
2023-07-29T13:55:12.762Z,26.60
2023-07-29T13:59:13.037Z,27.00
2023-07-29T14:03:15.942Z,27.80
2023-07-29T14:07:16.242Z,27.70
2023-07-29T14:11:16.578Z,28.10
2023-07-29T14:15:17.313Z,27.20
2023-07-29T14:19:20.240Z,26.30
2023-07-29T14:23:20.444Z,26.80
2023-07-29T14:27:20.677Z,28.10
2023-07-29T14:31:21.417Z,27.90
2023-07-29T14:35:25.199Z,28.10
2023-07-29T14:39:25.455Z,28.30
2023-07-29T14:43:26.153Z,28.60
2023-07-29T14:47:26.501Z,28.60
2023-07-29T14:51:29.403Z,28.20
2023-07-29T14:55:29.640Z,27.40
2023-07-29T14:59:30.169Z,26.80
2023-07-29T15:03:30.558Z,26.40
2023-07-29T15:07:33.639Z,26.40
2023-07-29T15:11:34.196Z,26.40
2023-07-29T15:15:34.482Z,27.00
2023-07-29T15:19:34.766Z,27.50
2023-07-29T15:23:37.621Z,26.80
2023-07-29T15:27:37.924Z,27.10
2023-07-29T15:31:38.725Z,27.60
2023-07-29T15:35:42.791Z,28.20
2023-07-29T15:39:45.787Z,28.50
2023-07-29T15:43:45.995Z,27.80
2023-07-29T15:47:46.279Z,27.70
2023-07-29T15:51:46.641Z,27.50
2023-07-29T15:55:49.605Z,27.70
2023-07-29T15:59:50.065Z,27.30
2023-07-29T16:03:51.022Z,27.90
2023-07-29T16:07:51.499Z,28.10
2023-07-29T16:11:54.409Z,28.10
2023-07-29T16:15:54.753Z,27.70
2023-07-29T16:20:00.689Z,27.20
2023-07-29T16:24:00.984Z,27.00
2023-07-29T16:28:03.894Z,27.00
2023-07-29T16:32:04.177Z,26.50
2023-07-29T16:36:04.475Z,26.10
2023-07-29T16:40:05.776Z,25.70
2023-07-29T16:44:09.027Z,25.30
2023-07-29T16:48:09.633Z,25.30
2023-07-29T16:52:10.899Z,25.80
2023-07-29T16:56:11.091Z,25.50
2023-07-29T17:00:16.155Z,25.10
2023-07-29T17:04:16.417Z,24.80
2023-07-29T17:08:16.661Z,24.40
2023-07-29T17:12:17.284Z,24.20
2023-07-29T17:16:20.442Z,24.20
2023-07-29T17:20:21.879Z,24.20
2023-07-29T17:24:22.214Z,24.50
2023-07-29T17:28:22.666Z,25.60
2023-07-29T17:32:25.587Z,25.90
2023-07-29T17:36:26.240Z,25.20
2023-07-29T17:40:26.942Z,24.50
2023-07-29T17:44:27.207Z,24.10
2023-07-29T17:48:32.182Z,24.10
2023-07-29T17:52:32.898Z,24.20
2023-07-29T17:56:33.207Z,24.20
2023-07-29T18:00:33.431Z,24.20
2023-07-29T18:04:36.362Z,24.00
2023-07-29T18:08:36.653Z,23.60
2023-07-29T18:12:36.948Z,23.20
2023-07-29T18:16:41.861Z,22.90
2023-07-29T18:20:47.173Z,22.70
2023-07-29T18:24:47.582Z,22.50
2023-07-29T18:28:47.888Z,22.40
2023-07-29T18:32:48.634Z,22.30
2023-07-29T18:36:51.476Z,22.20
2023-07-29T18:40:51.790Z,22.10
2023-07-29T18:44:52.026Z,22.00
2023-07-29T18:48:52.292Z,21.80
2023-07-29T18:52:59.188Z,21.60
2023-07-29T18:56:59.454Z,21.50
2023-07-29T19:00:59.750Z,21.40
2023-07-29T19:05:00.196Z,21.30
2023-07-29T19:09:03.284Z,21.20
2023-07-29T19:13:04.391Z,21.00
2023-07-29T19:17:04.613Z,20.80
2023-07-29T19:21:04.865Z,20.70
2023-07-29T19:25:09.683Z,20.50
2023-07-29T19:29:11.588Z,20.30
2023-07-29T19:33:11.960Z,20.20
2023-07-29T19:37:13.603Z,20.00
2023-07-29T19:41:17.537Z,19.90
2023-07-29T19:45:18.253Z,19.80
2023-07-29T19:49:18.590Z,19.70
2023-07-29T19:53:21.698Z,19.60
2023-07-29T19:57:24.679Z,19.50
2023-07-29T20:01:25.298Z,19.40
2023-07-29T20:05:25.771Z,19.30
2023-07-29T20:09:26.189Z,19.30
2023-07-29T20:13:30.047Z,19.30
2023-07-29T20:17:30.702Z,19.20
2023-07-29T20:21:30.999Z,19.20
2023-07-29T20:25:31.201Z,19.10
2023-07-29T20:29:34.102Z,19.10
2023-07-29T20:33:34.394Z,19.00
2023-07-29T20:37:34.719Z,19.00
2023-07-29T20:41:35.070Z,19.00
2023-07-29T20:45:39.733Z,18.90
2023-07-29T20:49:40.523Z,18.90
2023-07-29T20:53:40.973Z,18.90
2023-07-29T20:57:41.201Z,18.90
2023-07-29T21:01:44.301Z,19.00
2023-07-29T21:05:46.906Z,19.00
2023-07-29T21:09:47.134Z,19.00
2023-07-29T21:13:51.279Z,19.00
2023-07-29T21:17:54.685Z,18.90
2023-07-29T21:21:55.101Z,18.80
2023-07-29T21:25:55.897Z,18.70
2023-07-29T21:29:56.350Z,18.70
2023-07-29T21:33:59.292Z,18.60
2023-07-29T21:37:59.534Z,18.60
2023-07-29T21:42:00.260Z,18.60
2023-07-29T21:46:00.886Z,18.60
2023-07-29T21:50:05.238Z,18.50
2023-07-29T21:54:05.749Z,18.50
2023-07-29T21:58:06.137Z,18.50
2023-07-29T22:02:06.952Z,18.50
2023-07-29T22:06:10.430Z,18.40
2023-07-29T22:10:12.021Z,18.30
2023-07-29T22:14:12.343Z,18.30
2023-07-29T22:18:15.102Z,18.40
2023-07-29T22:22:18.304Z,18.40
2023-07-29T22:26:18.744Z,18.40
2023-07-29T22:30:19.582Z,18.40
2023-07-29T22:34:20.946Z,18.40
2023-07-29T22:38:23.893Z,18.40
2023-07-29T22:42:24.368Z,18.30
2023-07-29T22:46:24.755Z,18.30
2023-07-29T22:50:25.749Z,18.20
2023-07-29T22:54:28.676Z,18.10
2023-07-29T22:58:29.048Z,18.10
2023-07-29T23:02:29.615Z,18.10
2023-07-29T23:06:30.041Z,18.00
2023-07-29T23:10:33.872Z,17.90
2023-07-29T23:14:34.146Z,17.80
2023-07-29T23:18:34.491Z,17.80
2023-07-29T23:22:34.848Z,17.70
2023-07-29T23:26:37.872Z,17.60
2023-07-29T23:30:39.521Z,17.50
2023-07-29T23:34:39.999Z,17.40
2023-07-29T23:38:40.805Z,17.30
2023-07-29T23:42:44.015Z,17.30
2023-07-29T23:46:44.309Z,17.30
2023-07-29T23:50:44.916Z,17.20
2023-07-29T23:54:45.433Z,17.10
2023-07-29T23:58:48.508Z,17.10
